• Join FlightAware (Why Join?)
  • Login
  • US Flag 
02:07PM EDT


 

Airport Tracker/Info


-or-


 

Live Flight TrackerFlight Track Log ✈ N39PH ✈ 23-Apr-2013 ✈ KDRO - KROW

Flight Track Log - Related Links

Times and Time Zones

All times are in EDT time to prevent confusion due to time zone crossing. See the N39PH flight status page for this flight to view local times or setup timezone preferences in your user account.

Time Position Orientation Groundspeed Altitude Reporting Facility
EDT Latitude Longitude Course Direction KTS MPH feet Rate Location/Type
11:01PM 37.1381 -107.7669 144° Southeast 189 217 7,100  Level Albuquerque Center
11:02PM 37.0992 -107.7425 153° Southeast 196 226 8,800 1,620 Climbing Albuquerque Center
11:03PM 37.0486 -107.7017 147° Southeast 193 222 10,400 1,620 Climbing Albuquerque Center
11:04PM 37.0053 -107.6628 144° Southeast 196 226 12,200 1,560 Climbing Albuquerque Center
11:06PM 36.7760 -107.4293 144° Southeast  Level FlightAware Approximate
11:06PM 36.9550 -107.6161 143° Southeast 197 227 13,700  Level Denver Center
11:07PM 36.7150 -107.3734 144° Southeast  Level FlightAware Approximate
11:07PM 36.9058 -107.5725 145° Southeast 205 236 15,000  Level Denver Center
11:08PM 36.8456 -107.5161 143° Southeast 222 255 16,500 1,260 Climbing Denver Center
11:09PM 36.7928 -107.4694 145° Southeast 234 269 17,600 960 Climbing Denver Center
11:10PM 36.7392 -107.4239 146° Southeast 240 276 18,500 1,020 Climbing Denver Center
11:11PM 36.6739 -107.3650 144° Southeast 253 291 19,700 960 Climbing Denver Center
11:12PM 36.6169 -107.3153 145° Southeast 259 298 20,500 660 Climbing Denver Center
11:13PM 36.5575 -107.2644 146° Southeast 266 306 21,100 240 Climbing Denver Center
11:14PM 36.4814 -107.1969 145° Southeast 290 334 21,000 -60 Descending Denver Center
11:15PM 36.4125 -107.1367 145° Southeast 307 353 21,000  Level Denver Center
11:16PM 36.3436 -107.0767 145° Southeast 313 360 21,000  Level Denver Center
11:17PM 36.2647 -107.0083 145° Southeast 312 359 21,000  Level Albuquerque Center
11:18PM 36.1964 -106.9486 145° Southeast 312 359 21,000  Level Albuquerque Center
11:19PM 36.1228 -106.8844 145° Southeast 313 360 21,000  Level Albuquerque Center
11:20PM 36.0517 -106.8225 145° Southeast 312 359 21,000  Level Albuquerque Center
11:21PM 35.9811 -106.7611 145° Southeast 310 357 21,000  Level Albuquerque Center
11:22PM 35.9017 -106.6931 145° Southeast 310 357 21,000  Level Albuquerque Center
11:23PM 35.8342 -106.6333 144° Southeast 311 358 21,000  Level Albuquerque Center
11:24PM 35.7661 -106.5747 145° Southeast 311 358 21,000  Level Albuquerque Center
11:25PM 35.6856 -106.5058 145° Southeast 313 360 21,000  Level Albuquerque Center
11:26PM 35.6236 -106.4525 145° Southeast 315 362 21,000  Level Albuquerque Center
11:27PM 35.5522 -106.3911 145° Southeast 314 361 21,000  Level Albuquerque Center
11:28PM 35.4808 -106.3300 145° Southeast 312 359 21,000  Level Albuquerque Center
11:29PM 35.3953 -106.2553 145° Southeast 311 358 21,000  Level Albuquerque Center
11:30PM 35.3286 -106.2000 146° Southeast 320 368 21,000  Level Albuquerque Center
11:31PM 35.2447 -106.1297 146° Southeast 312 359 21,000  Level Albuquerque Center
11:32PM 35.1736 -106.0694 145° Southeast 308 354 21,000  Level Albuquerque Center
11:33PM 35.1017 -106.0081 145° Southeast 313 360 21,000  Level Albuquerque Center
11:34PM 35.0350 -105.9497 144° Southeast 313 360 21,000  Level Albuquerque Center
11:35PM 34.9553 -105.8836 146° Southeast 318 366 21,000  Level Albuquerque Center
11:36PM 34.8831 -105.8228 145° Southeast 316 364 21,000  Level Albuquerque Center
11:37PM 34.8117 -105.7628 145° Southeast 313 360 21,000  Level Albuquerque Center
11:38PM 34.7392 -105.7022 146° Southeast 312 359 21,000  Level Albuquerque Center
11:39PM 34.6686 -105.6417 145° Southeast 310 357 21,000  Level Albuquerque Center
11:40PM 34.5958 -105.5836 147° Southeast 310 357 21,000  Level Albuquerque Center
11:41PM 34.5242 -105.5236 145° Southeast 310 357 21,000  Level Albuquerque Center
11:42PM 34.4528 -105.4650 146° Southeast 309 356 21,000  Level Albuquerque Center
11:43PM 34.3817 -105.4053 145° Southeast 309 356 21,000  Level Albuquerque Center
11:44PM 34.3100 -105.3458 146° Southeast 309 356 21,000  Level Albuquerque Center
11:45PM 34.2269 -105.2806 147° Southeast 305 351 21,000  Level Albuquerque Center
11:46PM 34.1558 -105.2239 147° Southeast 304 350 21,000 -180 Level Albuquerque Center
11:47PM 34.0864 -105.1672 146° Southeast 302 348 20,700 -720 Descending Albuquerque Center
11:48PM 34.0072 -105.1050 147° Southeast 332 382 19,600 -1,200 Descending Albuquerque Center
11:49PM 33.9342 -105.0439 145° Southeast 321 369 18,300 -960 Descending Albuquerque Center
11:50PM 33.8656 -104.9811 143° Southeast 288 331 17,700 -840 Descending Albuquerque Center
11:51PM 33.8031 -104.9283 145° Southeast 275 316 16,700 -1,080 Descending Albuquerque Center
11:52PM 33.7411 -104.8761 145° Southeast 273 314 15,500 -1,260 Descending Albuquerque Center
11:53PM 33.6750 -104.8303 150° Southeast 273 314 14,200 -1,620 Descending Albuquerque Center
11:54PM 33.6036 -104.7750 147° Southeast 286 329 12,300 -1,680 Descending Albuquerque Center
11:56PM 33.5383 -104.7283 149° Southeast 276 318 10,900 -1,620 Descending Albuquerque Center
11:57PM 33.4767 -104.6783 146° Southeast 270 311 9,100 -1,800 Descending Albuquerque Center
11:58PM 33.4208 -104.6331 146° Southeast 248 285 7,300 -1,680 Descending Albuquerque Center
11:59PM 33.3653 -104.6006 154° Southeast 225 259 5,800 -840 Descending Albuquerque Center
12:00AM 33.3111 -104.5858 167° South 187 215 5,600 -360 Descending Albuquerque Center
12:01AM 33.2683 -104.5842 178° South 165 190 5,100 -780 Descending Albuquerque Center
12:02AM 33.2708 -104.5436 86° East 125 144 4,100 -780 Descending Albuquerque Center
12:03AM 33.2972 -104.5400 North 96 110 3,600 -540 Descending Albuquerque Center